sensor_id;sensor_type;location;lat;lon;timestamp;pressure;altitude;pressure_sealevel;temperature;humidity
72061;BME280;59925;52.136;5.420;2023-06-26T00:01:03;101308.66;;;21.60;68.70
72061;BME280;59925;52.136;5.420;2023-06-26T00:03:32;101316.38;;;21.49;68.88
72061;BME280;59925;52.136;5.420;2023-06-26T00:05:59;101299.91;;;21.46;68.96
72061;BME280;59925;52.136;5.420;2023-06-26T00:08:28;101296.09;;;21.38;69.34
72061;BME280;59925;52.136;5.420;2023-06-26T00:10:55;101289.06;;;21.37;69.66
72061;BME280;59925;52.136;5.420;2023-06-26T00:13:23;101296.88;;;21.38;69.06
72061;BME280;59925;52.136;5.420;2023-06-26T00:15:50;101298.03;;;21.37;69.70
72061;BME280;59925;52.136;5.420;2023-06-26T00:18:17;101299.50;;;21.35;69.17
72061;BME280;59925;52.136;5.420;2023-06-26T00:20:43;101300.31;;;21.35;68.97
72061;BME280;59925;52.136;5.420;2023-06-26T00:23:11;101300.31;;;21.35;68.68
72061;BME280;59925;52.136;5.420;2023-06-26T00:25:39;101302.69;;;21.37;68.49
72061;BME280;59925;52.136;5.420;2023-06-26T00:28:06;101296.88;;;21.38;68.52
72061;BME280;59925;52.136;5.420;2023-06-26T00:30:33;101291.44;;;21.38;68.03
72061;BME280;59925;52.136;5.420;2023-06-26T00:32:59;101285.53;;;21.36;68.39
72061;BME280;59925;52.136;5.420;2023-06-26T00:35:26;101278.28;;;21.40;67.90
72061;BME280;59925;52.136;5.420;2023-06-26T00:37:52;101275.00;;;21.47;67.17
72061;BME280;59925;52.136;5.420;2023-06-26T00:40:19;101272.88;;;21.53;66.73
72061;BME280;59925;52.136;5.420;2023-06-26T00:42:45;101276.19;;;21.58;65.99
72061;BME280;59925;52.136;5.420;2023-06-26T00:45:12;101277.00;;;21.59;65.77
72061;BME280;59925;52.136;5.420;2023-06-26T00:47:39;101272.38;;;21.59;65.72
72061;BME280;59925;52.136;5.420;2023-06-26T00:50:06;101276.19;;;21.58;65.90
72061;BME280;59925;52.136;5.420;2023-06-26T00:52:32;101269.03;;;21.54;66.04
72061;BME280;59925;52.136;5.420;2023-06-26T00:54:59;101267.41;;;21.53;66.10
72061;BME280;59925;52.136;5.420;2023-06-26T00:57:26;101271.28;;;21.52;65.54
72061;BME280;59925;52.136;5.420;2023-06-26T00:59:53;101271.63;;;21.50;65.77
72061;BME280;59925;52.136;5.420;2023-06-26T01:02:20;101276.13;;;21.46;66.56
72061;BME280;59925;52.136;5.420;2023-06-26T01:04:51;101284.84;;;21.39;67.28
72061;BME280;59925;52.136;5.420;2023-06-26T01:07:19;101278.34;;;21.32;67.42
72061;BME280;59925;52.136;5.420;2023-06-26T01:09:47;101293.19;;;21.22;68.08
72061;BME280;59925;52.136;5.420;2023-06-26T01:12:14;101288.91;;;21.12;68.20
72061;BME280;59925;52.136;5.420;2023-06-26T01:14:41;101297.41;;;21.10;68.61
72061;BME280;59925;52.136;5.420;2023-06-26T01:17:09;101291.28;;;21.13;68.14
72061;BME280;59925;52.136;5.420;2023-06-26T01:19:41;101297.34;;;21.19;68.04
72061;BME280;59925;52.136;5.420;2023-06-26T01:22:37;101296.97;;;21.30;67.76
72061;BME280;59925;52.136;5.420;2023-06-26T01:27:46;101302.94;;;21.44;67.25
72061;BME280;59925;52.136;5.420;2023-06-26T01:30:15;101309.69;;;21.47;67.43
72061;BME280;59925;52.136;5.420;2023-06-26T01:32:44;101314.78;;;21.48;66.95
72061;BME280;59925;52.136;5.420;2023-06-26T01:35:12;101319.94;;;21.50;66.79
72061;BME280;59925;52.136;5.420;2023-06-26T01:37:38;101320.72;;;21.50;66.77
72061;BME280;59925;52.136;5.420;2023-06-26T01:40:05;101325.81;;;21.52;66.63
72061;BME280;59925;52.136;5.420;2023-06-26T01:42:33;101322.31;;;21.51;66.79
72061;BME280;59925;52.136;5.420;2023-06-26T01:45:26;101327.78;;;21.51;66.31
72061;BME280;59925;52.136;5.420;2023-06-26T01:47:57;101332.09;;;21.52;66.49
72061;BME280;59925;52.136;5.420;2023-06-26T01:50:28;101327.44;;;21.53;66.21
72061;BME280;59925;52.136;5.420;2023-06-26T01:53:12;101325.81;;;21.52;66.06
72061;BME280;59925;52.136;5.420;2023-06-26T01:55:57;101325.81;;;21.52;65.53
72061;BME280;59925;52.136;5.420;2023-06-26T01:58:26;101321.50;;;21.51;65.85
72061;BME280;59925;52.136;5.420;2023-06-26T02:00:54;101331.16;;;21.48;65.54
72061;BME280;59925;52.136;5.420;2023-06-26T02:03:20;101332.63;;;21.46;65.78
72061;BME280;59925;52.136;5.420;2023-06-26T02:05:47;101326.03;;;21.47;65.32
72061;BME280;59925;52.136;5.420;2023-06-26T02:08:14;101328.31;;;21.44;65.05
72061;BME280;59925;52.136;5.420;2023-06-26T02:10:41;101326.38;;;21.45;65.30
72061;BME280;59925;52.136;5.420;2023-06-26T02:13:08;101332.50;;;21.42;64.96
72061;BME280;59925;52.136;5.420;2023-06-26T02:15:34;101337.97;;;21.42;64.71
72061;BME280;59925;52.136;5.420;2023-06-26T02:18:01;101331.91;;;21.36;65.14
72061;BME280;59925;52.136;5.420;2023-06-26T02:20:27;101331.75;;;21.33;65.39
72061;BME280;59925;52.136;5.420;2023-06-26T02:22:54;101334.69;;;21.27;65.94
72061;BME280;59925;52.136;5.420;2023-06-26T02:25:21;101336.31;;;21.20;65.79
72061;BME280;59925;52.136;5.420;2023-06-26T02:27:47;101334.59;;;21.15;66.30
72061;BME280;59925;52.136;5.420;2023-06-26T02:30:14;101334.44;;;21.11;66.33
72061;BME280;59925;52.136;5.420;2023-06-26T02:32:40;101328.84;;;21.08;66.74
72061;BME280;59925;52.136;5.420;2023-06-26T02:35:07;101338.81;;;21.04;66.44
72061;BME280;59925;52.136;5.420;2023-06-26T02:37:34;101336.75;;;21.01;66.75
72061;BME280;59925;52.136;5.420;2023-06-26T02:40:00;101335.00;;;20.96;67.01
72061;BME280;59925;52.136;5.420;2023-06-26T02:42:27;101352.81;;;20.93;67.05
72061;BME280;59925;52.136;5.420;2023-06-26T02:44:54;101338.25;;;20.89;67.76
72061;BME280;59925;52.136;5.420;2023-06-26T02:47:20;101341.63;;;20.86;68.13
72061;BME280;59925;52.136;5.420;2023-06-26T02:49:47;101337.94;;;20.82;68.10
72061;BME280;59925;52.136;5.420;2023-06-26T02:52:13;101340.19;;;20.80;68.34
72061;BME280;59925;52.136;5.420;2023-06-26T02:54:40;101347.25;;;20.81;68.45
72061;BME280;59925;52.136;5.420;2023-06-26T02:57:07;101349.50;;;20.79;68.34
72061;BME280;59925;52.136;5.420;2023-06-26T02:59:34;101353.03;;;20.79;68.70
72061;BME280;59925;52.136;5.420;2023-06-26T03:02:00;101362.34;;;20.78;68.04
72061;BME280;59925;52.136;5.420;2023-06-26T03:04:27;101360.38;;;20.79;67.76
72061;BME280;59925;52.136;5.420;2023-06-26T03:06:53;101349.03;;;20.77;68.63
72061;BME280;59925;52.136;5.420;2023-06-26T03:09:20;101353.69;;;20.76;68.66
72061;BME280;59925;52.136;5.420;2023-06-26T03:11:47;101352.06;;;20.75;68.85
72061;BME280;59925;52.136;5.420;2023-06-26T03:14:13;101360.41;;;20.70;69.03
72061;BME280;59925;52.136;5.420;2023-06-26T03:16:40;101364.56;;;20.67;69.22
72061;BME280;59925;52.136;5.420;2023-06-26T03:19:07;101365.69;;;20.66;69.29
72061;BME280;59925;52.136;5.420;2023-06-26T03:21:33;101362.50;;;20.64;69.53
72061;BME280;59925;52.136;5.420;2023-06-26T03:24:00;101371.00;;;20.63;69.87
72061;BME280;59925;52.136;5.420;2023-06-26T03:26:26;101365.88;;;20.61;70.08
72061;BME280;59925;52.136;5.420;2023-06-26T03:28:54;101370.66;;;20.64;69.95
72061;BME280;59925;52.136;5.420;2023-06-26T03:31:21;101366.03;;;20.65;69.89
72061;BME280;59925;52.136;5.420;2023-06-26T03:33:48;101369.75;;;20.60;70.20
72061;BME280;59925;52.136;5.420;2023-06-26T03:36:14;101370.53;;;20.61;70.14
72061;BME280;59925;52.136;5.420;2023-06-26T03:38:41;101365.88;;;20.61;70.10
72061;BME280;59925;52.136;5.420;2023-06-26T03:41:07;101368.13;;;20.59;70.28
72061;BME280;59925;52.136;5.420;2023-06-26T03:43:34;101370.84;;;20.59;70.56
72061;BME280;59925;52.136;5.420;2023-06-26T03:46:00;101377.59;;;20.53;70.76
72061;BME280;59925;52.136;5.420;2023-06-26T03:48:27;101384.00;;;20.48;71.07
72061;BME280;59925;52.136;5.420;2023-06-26T03:50:54;101386.25;;;20.46;71.01
72061;BME280;59925;52.136;5.420;2023-06-26T03:53:20;101391.25;;;20.44;71.12
72061;BME280;59925;52.136;5.420;2023-06-26T03:55:47;101389.94;;;20.42;70.87
72061;BME280;59925;52.136;5.420;2023-06-26T03:58:14;101394.59;;;20.41;70.92
72061;BME280;59925;52.136;5.420;2023-06-26T04:00:40;101384.84;;;20.40;70.72
72061;BME280;59925;52.136;5.420;2023-06-26T04:03:07;101401.03;;;20.36;70.31
72061;BME280;59925;52.136;5.420;2023-06-26T04:05:34;101412.88;;;20.32;70.58
72061;BME280;59925;52.136;5.420;2023-06-26T04:08:01;101420.41;;;20.26;70.62
72061;BME280;59925;52.136;5.420;2023-06-26T04:10:27;101425.69;;;20.23;70.64
72061;BME280;59925;52.136;5.420;2023-06-26T04:12:54;101423.16;;;20.17;70.91
72061;BME280;59925;52.136;5.420;2023-06-26T04:15:20;101419.75;;;20.12;70.75
72061;BME280;59925;52.136;5.420;2023-06-26T04:17:47;101427.13;;;20.11;71.07
72061;BME280;59925;52.136;5.420;2023-06-26T04:20:13;101426.81;;;20.13;70.82
72061;BME280;59925;52.136;5.420;2023-06-26T04:22:41;101436.09;;;20.12;70.87
72061;BME280;59925;52.136;5.420;2023-06-26T04:25:08;101431.94;;;20.14;71.19
72061;BME280;59925;52.136;5.420;2023-06-26T04:27:34;101428.88;;;20.16;70.91
72061;BME280;59925;52.136;5.420;2023-06-26T04:30:03;101425.69;;;20.14;71.15
72061;BME280;59925;52.136;5.420;2023-06-26T04:32:31;101434.50;;;20.11;70.80
72061;BME280;59925;52.136;5.420;2023-06-26T04:34:57;101436.41;;;20.10;70.99
72061;BME280;59925;52.136;5.420;2023-06-26T04:37:25;101437.88;;;20.08;71.23
72061;BME280;59925;52.136;5.420;2023-06-26T04:39:52;101437.72;;;20.04;71.09
72061;BME280;59925;52.136;5.420;2023-06-26T04:42:19;101448.75;;;19.99;71.32
72061;BME280;59925;52.136;5.420;2023-06-26T04:44:47;101451.94;;;20.01;71.17
72061;BME280;59925;52.136;5.420;2023-06-26T04:47:14;101461.22;;;20.00;71.26
72061;BME280;59925;52.136;5.420;2023-06-26T04:49:41;101451.63;;;20.02;71.30
72061;BME280;59925;52.136;5.420;2023-06-26T04:52:13;101455.63;;;20.05;71.17
72061;BME280;59925;52.136;5.420;2023-06-26T04:54:39;101467.47;;;20.00;71.42
72061;BME280;59925;52.136;5.420;2023-06-26T04:57:06;101475.81;;;20.04;71.38
72061;BME280;59925;52.136;5.420;2023-06-26T04:59:32;101472.44;;;20.07;71.13
72061;BME280;59925;52.136;5.420;2023-06-26T05:01:59;101475.47;;;20.05;70.87
72061;BME280;59925;52.136;5.420;2023-06-26T05:04:26;101474.69;;;19.96;70.87
72061;BME280;59925;52.136;5.420;2023-06-26T05:06:52;101493.06;;;19.99;71.23
72061;BME280;59925;52.136;5.420;2023-06-26T05:09:19;101488.94;;;20.02;70.71
72061;BME280;59925;52.136;5.420;2023-06-26T05:11:45;101488.28;;;20.05;70.86
72061;BME280;59925;52.136;5.420;2023-06-26T05:14:12;101483.34;;;20.16;70.21
72061;BME280;59925;52.136;5.420;2023-06-26T05:16:40;101481.25;;;20.21;70.16
72061;BME280;59925;52.136;5.420;2023-06-26T05:19:06;101487.06;;;21.20;68.48
72061;BME280;59925;52.136;5.420;2023-06-26T05:21:33;101482.69;;;21.28;66.22
72061;BME280;59925;52.136;5.420;2023-06-26T05:24:02;101493.44;;;20.77;67.32
72061;BME280;59925;52.136;5.420;2023-06-26T05:26:29;101493.75;;;20.49;67.97
72061;BME280;59925;52.136;5.420;2023-06-26T05:28:56;101508.16;;;20.41;68.62
72061;BME280;59925;52.136;5.420;2023-06-26T05:31:22;101504.94;;;20.39;68.81
72061;BME280;59925;52.136;5.420;2023-06-26T05:33:49;101510.25;;;20.35;68.65
72061;BME280;59925;52.136;5.420;2023-06-26T05:36:18;101508.94;;;20.59;68.60
72061;BME280;59925;52.136;5.420;2023-06-26T05:38:45;101508.19;;;20.76;67.45
72061;BME280;59925;52.136;5.420;2023-06-26T05:41:11;101505.09;;;20.60;67.73
72061;BME280;59925;52.136;5.420;2023-06-26T05:43:38;101517.47;;;21.40;67.42
72061;BME280;59925;52.136;5.420;2023-06-26T05:46:05;101517.25;;;23.23;62.62
72061;BME280;59925;52.136;5.420;2023-06-26T05:48:31;101516.53;;;24.83;57.90
72061;BME280;59925;52.136;5.420;2023-06-26T05:50:58;101521.91;;;25.55;54.69
72061;BME280;59925;52.136;5.420;2023-06-26T05:53:25;101516.94;;;26.33;53.79
72061;BME280;59925;52.136;5.420;2023-06-26T05:55:52;101528.22;;;26.86;51.37
72061;BME280;59925;52.136;5.420;2023-06-26T05:58:20;101531.09;;;27.17;50.09
72061;BME280;59925;52.136;5.420;2023-06-26T06:00:47;101535.56;;;27.02;48.46
72061;BME280;59925;52.136;5.420;2023-06-26T06:03:14;101536.88;;;26.69;48.31
72061;BME280;59925;52.136;5.420;2023-06-26T06:05:41;101552.75;;;26.95;47.97
72061;BME280;59925;52.136;5.420;2023-06-26T06:08:07;101554.03;;;26.62;48.10
72061;BME280;59925;52.136;5.420;2023-06-26T06:10:34;101561.28;;;26.90;47.91
72061;BME280;59925;52.136;5.420;2023-06-26T06:13:01;101574.59;;;26.88;47.18
72061;BME280;59925;52.136;5.420;2023-06-26T06:15:27;101571.28;;;26.98;46.67
72061;BME280;59925;52.136;5.420;2023-06-26T06:17:56;101566.19;;;26.61;46.72
72061;BME280;59925;52.136;5.420;2023-06-26T06:20:23;101572.41;;;26.77;47.15
72061;BME280;59925;52.136;5.420;2023-06-26T06:22:49;101580.53;;;26.90;46.85
72061;BME280;59925;52.136;5.420;2023-06-26T06:25:16;101583.72;;;26.92;46.90
72061;BME280;59925;52.136;5.420;2023-06-26T06:27:42;101579.78;;;27.13;46.27
72061;BME280;59925;52.136;5.420;2023-06-26T06:30:11;101584.31;;;27.25;46.93
72061;BME280;59925;52.136;5.420;2023-06-26T06:32:38;101587.47;;;26.64;47.06
72061;BME280;59925;52.136;5.420;2023-06-26T06:35:05;101592.81;;;25.21;50.09
72061;BME280;59925;52.136;5.420;2023-06-26T06:37:39;101610.09;;;24.53;52.19
72061;BME280;59925;52.136;5.420;2023-06-26T06:40:06;101622.34;;;23.93;53.33
72061;BME280;59925;52.136;5.420;2023-06-26T06:42:33;101613.94;;;23.40;54.90
72061;BME280;59925;52.136;5.420;2023-06-26T06:45:02;101618.44;;;23.23;56.02
72061;BME280;59925;52.136;5.420;2023-06-26T06:47:29;101620.56;;;23.18;56.89
72061;BME280;59925;52.136;5.420;2023-06-26T06:49:56;101621.47;;;23.09;56.98
72061;BME280;59925;52.136;5.420;2023-06-26T06:52:22;101639.69;;;22.84;57.89
72061;BME280;59925;52.136;5.420;2023-06-26T06:54:56;101638.16;;;22.53;58.19
72061;BME280;59925;52.136;5.420;2023-06-26T06:57:25;101642.63;;;23.21;58.01
72061;BME280;59925;52.136;5.420;2023-06-26T06:59:51;101637.84;;;23.77;56.61
72061;BME280;59925;52.136;5.420;2023-06-26T07:02:18;101635.22;;;23.93;55.62
72061;BME280;59925;52.136;5.420;2023-06-26T07:04:45;101639.38;;;23.40;56.63
72061;BME280;59925;52.136;5.420;2023-06-26T07:07:12;101641.50;;;23.81;56.63
72061;BME280;59925;52.136;5.420;2023-06-26T07:09:42;101642.81;;;24.61;53.75
72061;BME280;59925;52.136;5.420;2023-06-26T07:12:08;101635.84;;;24.76;53.00
72061;BME280;59925;52.136;5.420;2023-06-26T07:14:35;101651.31;;;24.56;54.30
72061;BME280;59925;52.136;5.420;2023-06-26T07:17:01;101665.19;;;24.63;53.37
72061;BME280;59925;52.136;5.420;2023-06-26T07:19:28;101659.75;;;24.39;54.72
72061;BME280;59925;52.136;5.420;2023-06-26T07:21:55;101658.63;;;24.40;54.96
72061;BME280;59925;52.136;5.420;2023-06-26T07:24:21;101673.25;;;24.31;55.05
72061;BME280;59925;52.136;5.420;2023-06-26T07:26:48;101680.72;;;23.72;56.46
72061;BME280;59925;52.136;5.420;2023-06-26T07:29:16;101679.38;;;23.33;57.80
72061;BME280;59925;52.136;5.420;2023-06-26T07:31:43;101672.09;;;23.16;58.39
72061;BME280;59925;52.136;5.420;2023-06-26T07:34:11;101672.38;;;23.23;58.15
72061;BME280;59925;52.136;5.420;2023-06-26T07:36:38;101678.56;;;22.90;58.21
72061;BME280;59925;52.136;5.420;2023-06-26T07:39:05;101676.16;;;22.88;59.32
72061;BME280;59925;52.136;5.420;2023-06-26T07:41:31;101678.81;;;23.18;59.11
72061;BME280;59925;52.136;5.420;2023-06-26T07:43:58;101682.22;;;23.36;58.05
72061;BME280;59925;52.136;5.420;2023-06-26T07:46:25;101675.88;;;23.57;57.05
72061;BME280;59925;52.136;5.420;2023-06-26T07:48:53;101686.31;;;23.76;56.83
72061;BME280;59925;52.136;5.420;2023-06-26T07:51:20;101687.31;;;23.71;57.55
72061;BME280;59925;52.136;5.420;2023-06-26T07:53:47;101692.31;;;23.57;56.70
72061;BME280;59925;52.136;5.420;2023-06-26T07:56:13;101691.19;;;23.70;57.20
72061;BME280;59925;52.136;5.420;2023-06-26T07:58:40;101699.34;;;23.46;56.73
72061;BME280;59925;52.136;5.420;2023-06-26T08:01:06;101702.00;;;23.21;57.74
72061;BME280;59925;52.136;5.420;2023-06-26T08:03:33;101707.31;;;22.96;57.79
72061;BME280;59925;52.136;5.420;2023-06-26T08:06:01;101702.63;;;22.96;58.01
72061;BME280;59925;52.136;5.420;2023-06-26T08:08:29;101701.38;;;22.94;57.88
72061;BME280;59925;52.136;5.420;2023-06-26T08:10:56;101700.34;;;23.41;58.31
72061;BME280;59925;52.136;5.420;2023-06-26T08:13:22;101698.28;;;23.84;57.83
72061;BME280;59925;52.136;5.420;2023-06-26T08:15:49;101703.16;;;24.24;57.60
72061;BME280;59925;52.136;5.420;2023-06-26T08:18:16;101704.88;;;24.29;55.70
72061;BME280;59925;52.136;5.420;2023-06-26T08:20:43;101704.53;;;24.30;55.67
72061;BME280;59925;52.136;5.420;2023-06-26T08:23:09;101710.94;;;24.47;55.29
72061;BME280;59925;52.136;5.420;2023-06-26T08:25:36;101710.91;;;24.59;54.78
72061;BME280;59925;52.136;5.420;2023-06-26T08:28:02;101710.47;;;24.32;54.14
72061;BME280;59925;52.136;5.420;2023-06-26T08:30:29;101714.94;;;24.37;54.12
72061;BME280;59925;52.136;5.420;2023-06-26T08:32:56;101722.13;;;24.17;53.81
72061;BME280;59925;52.136;5.420;2023-06-26T08:35:22;101721.19;;;24.13;53.84
72061;BME280;59925;52.136;5.420;2023-06-26T08:37:49;101721.75;;;24.06;53.74
72061;BME280;59925;52.136;5.420;2023-06-26T08:40:17;101723.69;;;24.06;52.63
72061;BME280;59925;52.136;5.420;2023-06-26T08:42:44;101724.53;;;23.85;52.77
72061;BME280;59925;52.136;5.420;2023-06-26T08:45:11;101736.03;;;24.12;52.56
72061;BME280;59925;52.136;5.420;2023-06-26T08:47:41;101736.16;;;24.28;50.26
72061;BME280;59925;52.136;5.420;2023-06-26T08:50:13;101739.59;;;24.37;51.54
72061;BME280;59925;52.136;5.420;2023-06-26T08:52:43;101741.50;;;24.49;51.60
72061;BME280;59925;52.136;5.420;2023-06-26T08:55:12;101741.38;;;24.08;50.00
72061;BME280;59925;52.136;5.420;2023-06-26T08:57:41;101739.41;;;23.96;50.79
72061;BME280;59925;52.136;5.420;2023-06-26T09:00:09;101747.81;;;24.37;49.44
72061;BME280;59925;52.136;5.420;2023-06-26T09:02:37;101764.81;;;24.18;49.71
72061;BME280;59925;52.136;5.420;2023-06-26T09:05:04;101757.38;;;24.18;50.01
72061;BME280;59925;52.136;5.420;2023-06-26T09:07:31;101766.31;;;24.28;49.15
72061;BME280;59925;52.136;5.420;2023-06-26T09:09:58;101760.00;;;24.27;50.68
72061;BME280;59925;52.136;5.420;2023-06-26T09:12:27;101771.66;;;24.49;50.48
72061;BME280;59925;52.136;5.420;2023-06-26T09:14:57;101762.84;;;24.06;49.70
72061;BME280;59925;52.136;5.420;2023-06-26T09:17:25;101787.56;;;23.97;49.84
72061;BME280;59925;52.136;5.420;2023-06-26T09:19:52;101780.78;;;24.28;50.47
72061;BME280;59925;52.136;5.420;2023-06-26T09:22:19;101782.41;;;24.67;49.68
72061;BME280;59925;52.136;5.420;2023-06-26T09:24:46;101782.19;;;24.59;47.86
72061;BME280;59925;52.136;5.420;2023-06-26T09:27:13;101784.22;;;24.62;48.33
72061;BME280;59925;52.136;5.420;2023-06-26T09:29:39;101794.94;;;25.05;48.46
72061;BME280;59925;52.136;5.420;2023-06-26T09:32:08;101785.72;;;25.38;47.04
72061;BME280;59925;52.136;5.420;2023-06-26T09:34:35;101799.09;;;25.39;46.19
72061;BME280;59925;52.136;5.420;2023-06-26T09:37:03;101801.28;;;25.34;47.02
72061;BME280;59925;52.136;5.420;2023-06-26T09:39:30;101805.09;;;25.58;46.08
72061;BME280;59925;52.136;5.420;2023-06-26T09:41:57;101803.28;;;25.62;46.97
72061;BME280;59925;52.136;5.420;2023-06-26T09:44:24;101797.78;;;25.62;46.69
72061;BME280;59925;52.136;5.420;2023-06-26T09:46:50;101809.34;;;25.14;47.40
72061;BME280;59925;52.136;5.420;2023-06-26T09:49:17;101812.75;;;24.61;47.49
72061;BME280;59925;52.136;5.420;2023-06-26T09:51:43;101821.41;;;24.14;47.38
72061;BME280;59925;52.136;5.420;2023-06-26T09:54:10;101810.31;;;24.10;48.17
72061;BME280;59925;52.136;5.420;2023-06-26T09:56:37;101821.34;;;24.47;48.67
72061;BME280;59925;52.136;5.420;2023-06-26T09:59:04;101824.69;;;24.90;45.83
72061;BME280;59925;52.136;5.420;2023-06-26T10:01:31;101827.84;;;24.43;45.68
72061;BME280;59925;52.136;5.420;2023-06-26T10:03:59;101832.41;;;24.39;46.88
72061;BME280;59925;52.136;5.420;2023-06-26T10:06:40;101834.41;;;24.17;47.10
72061;BME280;59925;52.136;5.420;2023-06-26T10:09:09;101835.81;;;24.36;46.82
72061;BME280;59925;52.136;5.420;2023-06-26T10:11:56;101825.91;;;24.56;46.96
72061;BME280;59925;52.136;5.420;2023-06-26T10:14:26;101841.94;;;24.78;46.11
72061;BME280;59925;52.136;5.420;2023-06-26T10:16:56;101837.59;;;25.02;45.59
72061;BME280;59925;52.136;5.420;2023-06-26T10:19:25;101857.31;;;25.33;45.71
72061;BME280;59925;52.136;5.420;2023-06-26T10:21:54;101853.47;;;25.62;44.03
72061;BME280;59925;52.136;5.420;2023-06-26T10:24:22;101843.34;;;25.50;43.52
72061;BME280;59925;52.136;5.420;2023-06-26T10:26:52;101858.22;;;25.49;44.53
72061;BME280;59925;52.136;5.420;2023-06-26T10:29:22;101863.72;;;25.49;43.40
72061;BME280;59925;52.136;5.420;2023-06-26T10:31:52;101851.19;;;25.11;44.42
72061;BME280;59925;52.136;5.420;2023-06-26T10:34:22;101854.78;;;25.28;44.62
72061;BME280;59925;52.136;5.420;2023-06-26T10:36:59;101865.09;;;25.43;44.68
72061;BME280;59925;52.136;5.420;2023-06-26T10:39:26;101853.88;;;25.48;43.73
72061;BME280;59925;52.136;5.420;2023-06-26T10:42:08;101865.47;;;25.70;43.35
72061;BME280;59925;52.136;5.420;2023-06-26T10:44:44;101858.94;;;26.03;43.89
72061;BME280;59925;52.136;5.420;2023-06-26T10:47:34;101861.13;;;25.97;42.36
72061;BME280;59925;52.136;5.420;2023-06-26T10:53:13;101857.50;;;26.54;41.74
72061;BME280;59925;52.136;5.420;2023-06-26T10:55:42;101864.25;;;26.72;41.33
72061;BME280;59925;52.136;5.420;2023-06-26T10:58:28;101862.91;;;26.98;41.36
72061;BME280;59925;52.136;5.420;2023-06-26T11:04:06;101881.63;;;26.92;41.03
72061;BME280;59925;52.136;5.420;2023-06-26T11:06:35;101881.53;;;26.89;40.40
72061;BME280;59925;52.136;5.420;2023-06-26T11:11:55;101890.13;;;27.03;40.45
72061;BME280;59925;52.136;5.420;2023-06-26T11:14:26;101886.78;;;27.30;38.70
72061;BME280;59925;52.136;5.420;2023-06-26T11:16:56;101882.38;;;27.09;39.87
72061;BME280;59925;52.136;5.420;2023-06-26T11:19:25;101886.50;;;26.67;40.67
72061;BME280;59925;52.136;5.420;2023-06-26T11:21:58;101895.88;;;26.34;40.81
72061;BME280;59925;52.136;5.420;2023-06-26T11:24:25;101901.75;;;26.04;40.66
72061;BME280;59925;52.136;5.420;2023-06-26T11:26:52;101911.50;;;25.36;41.15
72061;BME280;59925;52.136;5.420;2023-06-26T11:29:19;101909.94;;;25.10;41.79
72061;BME280;59925;52.136;5.420;2023-06-26T11:31:45;101914.22;;;25.61;41.67
72061;BME280;59925;52.136;5.420;2023-06-26T11:34:13;101914.53;;;26.12;40.22
72061;BME280;59925;52.136;5.420;2023-06-26T11:36:42;101912.88;;;25.95;40.77
72061;BME280;59925;52.136;5.420;2023-06-26T11:39:09;101907.41;;;25.42;41.05
72061;BME280;59925;52.136;5.420;2023-06-26T11:41:38;101928.22;;;25.18;42.29
72061;BME280;59925;52.136;5.420;2023-06-26T11:44:09;101921.25;;;25.33;41.68
72061;BME280;59925;52.136;5.420;2023-06-26T11:46:37;101922.59;;;25.52;41.34
72061;BME280;59925;52.136;5.420;2023-06-26T11:49:07;101926.44;;;25.76;41.03
72061;BME280;59925;52.136;5.420;2023-06-26T11:51:34;101946.84;;;26.03;40.96
72061;BME280;59925;52.136;5.420;2023-06-26T11:54:03;101943.13;;;25.83;39.53
72061;BME280;59925;52.136;5.420;2023-06-26T11:56:30;101955.94;;;25.79;39.24
72061;BME280;59925;52.136;5.420;2023-06-26T11:59:04;101946.63;;;25.96;39.54
72061;BME280;59925;52.136;5.420;2023-06-26T12:04:05;101961.03;;;26.34;38.76
72061;BME280;59925;52.136;5.420;2023-06-26T12:06:36;101959.84;;;26.47;38.83
72061;BME280;59925;52.136;5.420;2023-06-26T12:09:09;101957.91;;;26.64;38.84
72061;BME280;59925;52.136;5.420;2023-06-26T12:11:38;101970.22;;;26.54;38.49
72061;BME280;59925;52.136;5.420;2023-06-26T12:14:07;101960.56;;;26.03;38.82
72061;BME280;59925;52.136;5.420;2023-06-26T12:16:35;101975.81;;;26.13;38.17
72061;BME280;59925;52.136;5.420;2023-06-26T12:19:04;101984.94;;;26.05;37.23
72061;BME280;59925;52.136;5.420;2023-06-26T12:21:45;101978.53;;;25.22;39.31
72061;BME280;59925;52.136;5.420;2023-06-26T12:24:17;101976.81;;;25.18;39.30
72061;BME280;59925;52.136;5.420;2023-06-26T12:26:45;101967.75;;;24.92;39.85
72061;BME280;59925;52.136;5.420;2023-06-26T12:29:14;101967.09;;;25.20;39.64
72061;BME280;59925;52.136;5.420;2023-06-26T12:31:46;101974.16;;;25.34;39.39
72061;BME280;59925;52.136;5.420;2023-06-26T12:34:17;101966.16;;;25.66;38.35
72061;BME280;59925;52.136;5.420;2023-06-26T12:36:46;101972.56;;;25.70;38.38
72061;BME280;59925;52.136;5.420;2023-06-26T12:39:19;101978.31;;;25.40;39.27
72061;BME280;59925;52.136;5.420;2023-06-26T12:41:52;101986.84;;;25.38;39.98
72061;BME280;59925;52.136;5.420;2023-06-26T12:44:21;101986.25;;;25.82;38.51
72061;BME280;59925;52.136;5.420;2023-06-26T12:46:49;101978.53;;;25.35;38.75
72061;BME280;59925;52.136;5.420;2023-06-26T12:49:16;101986.38;;;24.99;39.00
72061;BME280;59925;52.136;5.420;2023-06-26T12:51:57;101987.06;;;25.08;40.43
72061;BME280;59925;52.136;5.420;2023-06-26T12:54:24;101986.06;;;25.63;38.73
72061;BME280;59925;52.136;5.420;2023-06-26T12:56:52;101987.72;;;25.92;39.57
72061;BME280;59925;52.136;5.420;2023-06-26T12:59:19;102000.38;;;25.56;39.23
72061;BME280;59925;52.136;5.420;2023-06-26T13:01:46;101992.34;;;25.63;39.29
72061;BME280;59925;52.136;5.420;2023-06-26T13:04:13;101994.63;;;25.86;39.24
72061;BME280;59925;52.136;5.420;2023-06-26T13:06:40;101991.31;;;25.68;39.40
72061;BME280;59925;52.136;5.420;2023-06-26T13:09:06;101996.06;;;25.96;38.35